Chupadero, New Mexico
Current Conditions -  °F | °C
As of 12:53 PM on Friday 24 Oct 2014 (Local Time) from KSAF Reporting Station
Clear Clear  
Wind Chill: 72°   Ceiling: Unl
Heat Index: 72°   Visibility: 10mi
Dew Point: 29°   Wind: 10mph
Humidity: 20%   Direction: 340°NNW
Pressure: 30.34"   Gusts: NA
Location:  35.7017°N, 105.921°W
Report Text: KSAF 241853Z 34009KT 10SM CLR 22/M02 A3034 RMK AO2 SLP191 T02221017
Loading
Personal Weather Stations






























Interactive Weather Map
Tropical Storm Tracking
New forecast layout! Learn more

10-Day Weather Forecast

Advertisements
Track Severe Weather on mobile